createdAt,value
2022-09-27T00:03:18.373Z,9.90
2022-09-27T00:08:19.534Z,10.07
2022-09-27T00:13:20.649Z,10.07
2022-09-27T00:18:21.768Z,10.24
2022-09-27T00:23:22.941Z,10.24
2022-09-27T00:28:24.104Z,10.07
2022-09-27T00:33:25.204Z,8.92
2022-09-27T00:38:26.383Z,9.42
2022-09-27T00:43:27.508Z,9.75
2022-09-27T00:48:28.701Z,10.07
2022-09-27T00:53:29.892Z,10.07
2022-09-27T00:58:31.074Z,10.39
2022-09-27T01:03:32.263Z,10.70
2022-09-27T01:08:33.480Z,10.54
2022-09-27T01:13:34.572Z,10.70
2022-09-27T01:18:36.672Z,10.85
2022-09-27T01:23:36.577Z,10.85
2022-09-27T01:28:36.522Z,10.85
2022-09-27T01:33:35.773Z,10.85
2022-09-27T01:38:36.851Z,10.70
2022-09-27T01:43:37.965Z,10.39
2022-09-27T01:48:40.080Z,10.39
2022-09-27T01:53:39.183Z,10.23
2022-09-27T01:58:41.301Z,9.91
2022-09-27T02:03:40.617Z,9.91
2022-09-27T02:08:41.805Z,9.91
2022-09-27T02:13:42.941Z,10.07
2022-09-27T02:18:44.153Z,10.07
2022-09-27T02:23:45.287Z,9.91
2022-09-27T02:28:47.391Z,9.91
2022-09-27T02:33:46.465Z,9.75
2022-09-27T02:38:48.613Z,9.59
2022-09-27T02:43:47.702Z,9.59
2022-09-27T02:48:48.779Z,9.91
2022-09-27T02:53:49.958Z,10.23
2022-09-27T02:58:52.059Z,10.07
2022-09-27T03:03:50.143Z,9.91
2022-09-27T03:08:52.241Z,9.75
2022-09-27T03:14:07.806Z,9.91
2022-09-27T03:18:52.376Z,10.07
2022-09-27T03:23:53.470Z,9.91
2022-09-27T03:28:54.732Z,9.91
2022-09-27T03:33:55.899Z,9.91
2022-09-27T03:38:57.090Z,9.91
2022-09-27T03:43:58.465Z,9.75
2022-09-27T03:48:59.594Z,9.59
2022-09-27T03:54:00.684Z,9.75
2022-09-27T03:59:02.443Z,9.59
2022-09-27T04:04:01.610Z,9.91
2022-09-27T04:09:02.755Z,10.23
2022-09-27T04:14:03.939Z,9.24
2022-09-27T04:19:05.084Z,9.55
2022-09-27T04:24:06.247Z,9.55
2022-09-27T04:29:08.654Z,9.85
2022-09-27T04:34:07.849Z,9.55
2022-09-27T04:39:09.027Z,9.70
2022-09-27T04:44:10.225Z,9.26
2022-09-27T04:49:13.394Z,9.26
2022-09-27T04:54:12.577Z,10.07
2022-09-27T04:59:13.745Z,9.42
2022-09-27T05:04:14.918Z,8.92
2022-09-27T05:09:16.146Z,9.08
2022-09-27T05:14:17.601Z,9.08
2022-09-27T05:19:19.108Z,9.08
2022-09-27T05:24:18.301Z,8.43
2022-09-27T05:29:20.419Z,8.60
2022-09-27T05:34:19.551Z,8.76
2022-09-27T05:39:20.648Z,9.24
2022-09-27T05:44:21.875Z,9.39
2022-09-27T05:49:23.007Z,8.92
2022-09-27T05:54:24.102Z,8.92
2022-09-27T05:59:25.202Z,9.24
2022-09-27T06:04:26.400Z,7.76
2022-09-27T06:09:27.573Z,8.43
2022-09-27T06:14:28.774Z,8.92
2022-09-27T06:19:30.004Z,8.92
2022-09-27T06:24:31.732Z,9.39
2022-09-27T06:29:30.833Z,9.24
2022-09-27T06:34:32.052Z,9.08
2022-09-27T06:39:33.146Z,8.60
2022-09-27T06:44:34.407Z,7.76
2022-09-27T06:49:36.526Z,7.59
2022-09-27T06:54:34.760Z,8.43
2022-09-27T06:59:36.869Z,8.43
2022-09-27T07:04:35.974Z,8.27
2022-09-27T07:09:37.227Z,8.27
2022-09-27T07:14:38.426Z,8.27
2022-09-27T07:19:39.574Z,8.92
2022-09-27T07:24:40.732Z,8.43
2022-09-27T07:29:41.893Z,8.92
2022-09-27T07:34:43.107Z,8.40
2022-09-27T07:39:44.347Z,8.40
2022-09-27T07:44:46.522Z,8.75
2022-09-27T07:49:45.706Z,7.76
2022-09-27T07:54:47.053Z,7.77
2022-09-27T07:59:50.160Z,6.94
2022-09-27T08:04:49.584Z,6.62
2022-09-27T08:09:50.687Z,6.94
2022-09-27T08:14:51.901Z,7.09
2022-09-27T08:19:53.132Z,7.25
2022-09-27T08:24:54.220Z,7.09
2022-09-27T08:29:55.508Z,7.09
2022-09-27T08:34:56.630Z,6.62
2022-09-27T08:39:58.733Z,6.78
2022-09-27T08:45:03.447Z,7.93
2022-09-27T08:49:59.026Z,6.27
2022-09-27T08:55:00.277Z,6.34
2022-09-27T09:00:01.360Z,6.89
2022-09-27T09:05:02.559Z,6.71
2022-09-27T09:10:03.714Z,7.59
2022-09-27T09:15:04.973Z,7.42
2022-09-27T09:20:07.233Z,7.07
2022-09-27T09:25:06.371Z,6.89
2022-09-27T09:30:07.601Z,7.86
2022-09-27T09:35:08.939Z,7.68
2022-09-27T09:40:10.185Z,7.68
2022-09-27T09:45:11.337Z,6.54
2022-09-27T09:50:13.483Z,7.51
2022-09-27T09:55:11.582Z,7.90
2022-09-27T10:00:13.685Z,9.55
2022-09-27T10:05:12.794Z,10.36
2022-09-27T10:10:14.069Z,7.86
2022-09-27T10:15:16.145Z,7.86
2022-09-27T10:20:15.323Z,7.10
2022-09-27T10:25:16.581Z,8.27
2022-09-27T10:30:17.857Z,6.90
2022-09-27T10:35:23.409Z,8.07
2022-09-27T10:40:19.256Z,7.86
2022-09-27T10:45:18.395Z,7.23
2022-09-27T10:50:46.006Z,7.23
2022-09-27T10:55:19.544Z,7.86
2022-09-27T11:00:20.629Z,8.47
2022-09-27T11:05:21.716Z,9.25
2022-09-27T11:10:23.816Z,9.44
2022-09-27T11:15:22.916Z,8.67
2022-09-27T11:20:24.131Z,7.65
2022-09-27T11:25:28.441Z,9.03
2022-09-27T11:30:26.233Z,8.82
2022-09-27T11:35:25.386Z,8.40
2022-09-27T11:40:26.618Z,9.06
2022-09-27T11:45:45.269Z,8.67
2022-09-27T11:50:27.649Z,9.06
2022-09-27T11:55:28.738Z,8.47
2022-09-27T12:00:29.918Z,8.84
2022-09-27T12:05:33.000Z,8.22
2022-09-27T12:10:33.184Z,8.75
2022-09-27T12:15:32.461Z,8.10
2022-09-27T12:20:33.679Z,7.93
2022-09-27T12:25:34.773Z,8.10
2022-09-27T12:30:35.895Z,8.43
2022-09-27T12:35:36.993Z,8.76
2022-09-27T12:40:38.229Z,9.91
2022-09-27T12:45:39.379Z,9.09
2022-09-27T12:50:40.607Z,10.41
2022-09-27T12:55:43.703Z,9.59
2022-09-27T13:00:43.025Z,10.74
2022-09-27T13:05:45.108Z,10.24
2022-09-27T13:10:44.336Z,11.23
2022-09-27T13:15:45.535Z,9.81
2022-09-27T13:20:46.843Z,9.81
2022-09-27T13:25:54.887Z,10.18
2022-09-27T13:30:48.255Z,9.63
2022-09-27T13:35:49.330Z,8.65
2022-09-27T13:40:50.579Z,9.63
2022-09-27T13:45:51.799Z,9.06
2022-09-27T13:50:52.954Z,9.83
2022-09-27T13:55:54.059Z,8.07
2022-09-27T14:00:55.196Z,8.67
2022-09-27T14:05:56.327Z,10.03
2022-09-27T14:10:57.529Z,9.23
2022-09-27T14:15:58.922Z,9.83
2022-09-27T14:21:00.182Z,9.44
2022-09-27T14:26:01.279Z,9.23
2022-09-27T14:31:02.573Z,10.22
2022-09-27T14:36:02.876Z,9.44
2022-09-27T14:41:04.128Z,9.83
2022-09-27T14:46:06.419Z,9.64
2022-09-27T14:51:09.517Z,9.64
2022-09-27T14:56:06.543Z,9.64
2022-09-27T15:01:08.661Z,10.40
2022-09-27T15:06:07.765Z,9.44
2022-09-27T15:11:08.869Z,9.23
2022-09-27T15:16:10.059Z,9.44
2022-09-27T15:21:13.251Z,9.23
2022-09-27T15:26:13.396Z,9.44
2022-09-27T15:31:13.537Z,9.44
2022-09-27T15:36:12.808Z,9.44
2022-09-27T15:41:13.935Z,9.03
2022-09-27T15:46:15.256Z,8.61
2022-09-27T15:51:16.329Z,8.82
2022-09-27T15:56:21.455Z,9.03
2022-09-27T16:01:19.547Z,9.64
2022-09-27T16:06:18.726Z,9.06
2022-09-27T16:11:20.015Z,8.87
2022-09-27T16:16:21.227Z,8.47
2022-09-27T16:21:24.341Z,8.67
2022-09-27T16:26:23.512Z,9.25
2022-09-27T16:31:26.824Z,9.63
2022-09-27T16:36:26.009Z,9.38
2022-09-27T16:41:28.094Z,9.55
2022-09-27T16:46:28.224Z,10.07
2022-09-27T16:51:27.407Z,9.90
2022-09-27T16:56:28.602Z,9.90
2022-09-27T17:01:29.794Z,9.90
2022-09-27T17:06:31.916Z,9.09
2022-09-27T17:11:31.078Z,8.75
2022-09-27T17:16:32.251Z,9.26
2022-09-27T17:21:37.900Z,9.26
2022-09-27T17:26:33.318Z,9.42
2022-09-27T17:31:34.513Z,9.75
2022-09-27T17:36:35.786Z,10.39
2022-09-27T17:41:40.094Z,10.23
2022-09-27T17:46:37.439Z,10.39
2022-09-27T17:51:38.653Z,10.39
2022-09-27T17:56:40.747Z,10.54
2022-09-27T18:01:39.973Z,10.54
2022-09-27T18:06:42.348Z,10.54
2022-09-27T18:11:42.496Z,10.54
2022-09-27T18:16:41.646Z,10.54
2022-09-27T18:21:46.621Z,10.23
2022-09-27T18:26:44.951Z,10.23
2022-09-27T18:31:48.476Z,9.39
2022-09-27T18:36:45.096Z,9.39
2022-09-27T18:41:44.341Z,9.55
2022-09-27T18:46:46.454Z,9.55
2022-09-27T18:51:45.793Z,9.39
2022-09-27T18:56:46.997Z,9.39
2022-09-27T19:01:49.462Z,9.39
2022-09-27T19:06:49.805Z,9.70
2022-09-27T19:11:50.045Z,9.70
2022-09-27T19:16:50.367Z,9.70
2022-09-27T19:21:49.642Z,9.55
2022-09-27T19:26:50.981Z,9.85
2022-09-27T19:31:52.452Z,9.85
2022-09-27T19:36:54.616Z,9.85
2022-09-27T19:41:54.931Z,9.85
2022-09-27T19:46:54.374Z,9.85
2022-09-27T19:51:54.079Z,9.85
2022-09-27T19:56:53.255Z,9.85
2022-09-27T20:01:55.661Z,9.85
2022-09-27T20:06:55.417Z,9.85
2022-09-27T20:11:54.582Z,9.85
2022-09-27T20:16:56.853Z,9.85
2022-09-27T20:21:55.163Z,9.85
2022-09-27T20:26:56.265Z,9.85
2022-09-27T20:32:25.575Z,9.70
2022-09-27T20:36:57.352Z,9.70
2022-09-27T20:41:59.845Z,9.39
2022-09-27T20:46:59.042Z,9.08
2022-09-27T20:52:01.181Z,8.92
2022-09-27T20:57:01.275Z,8.92
2022-09-27T21:02:01.441Z,8.76
2022-09-27T21:07:01.603Z,8.92
2022-09-27T21:12:01.722Z,8.92
2022-09-27T21:17:02.094Z,9.08
2022-09-27T21:22:01.352Z,9.08
2022-09-27T21:27:02.466Z,9.75
2022-09-27T21:32:04.568Z,9.75
2022-09-27T21:37:03.795Z,9.91
2022-09-27T21:42:04.892Z,9.75
2022-09-27T21:47:06.160Z,8.76
2022-09-27T21:52:07.313Z,9.75
2022-09-27T21:57:09.435Z,9.75
2022-09-27T22:02:08.817Z,8.60
2022-09-27T22:07:10.127Z,9.08
2022-09-27T22:12:11.211Z,8.92
2022-09-27T22:17:12.316Z,9.75
2022-09-27T22:22:12.415Z,9.42
2022-09-27T22:27:14.505Z,9.59
2022-09-27T22:32:14.639Z,9.59
2022-09-27T22:37:13.766Z,9.59
2022-09-27T22:42:15.101Z,9.59
2022-09-27T22:47:17.204Z,9.42
2022-09-27T22:52:17.306Z,9.42
2022-09-27T22:57:16.437Z,9.42
2022-09-27T23:02:17.569Z,9.42
2022-09-27T23:07:19.681Z,9.26
2022-09-27T23:12:18.892Z,9.26
2022-09-27T23:17:20.009Z,8.10
2022-09-27T23:22:21.123Z,9.26
2022-09-27T23:27:23.245Z,9.09
2022-09-27T23:32:23.336Z,8.27
2022-09-27T23:37:22.449Z,8.60
2022-09-27T23:42:25.566Z,8.76
2022-09-27T23:47:25.867Z,8.92
2022-09-27T23:52:25.138Z,9.08
2022-09-27T23:57:26.233Z,9.24
